Time;durP1;ratioP1;P1;durP2;ratioP2;P2;SDS_P1;SDS_P2;PMS_P1;PMS_P2;Temp;Humidity;BMP_temperature;BMP_pressure;BME280_temperature;BME280_humidity;BME280_pressure;Samples;Min_cycle;Max_cycle;Signal;HPM_P1;HPM_P2
2022/09/14 00:00:48;;;;;;;7.47;5.83;;;12.40;99.90;;;;;;5072919;28;20228;-67
2022/09/14 00:03:16;;;;;;;10.50;5.40;;;12.40;99.90;;;;;;5073386;28;20340;-68
2022/09/14 00:05:45;;;;;;;12.30;6.37;;;12.40;99.90;;;;;;5072396;28;20212;-68
2022/09/14 00:08:12;;;;;;;8.73;6.30;;;12.40;99.90;;;;;;5073118;28;20290;-68
2022/09/14 00:10:40;;;;;;;8.00;6.13;;;12.40;99.90;;;;;;5072895;28;20212;-70
2022/09/14 00:13:08;;;;;;;9.23;6.50;;;12.40;99.90;;;;;;5072778;28;20208;-68
2022/09/14 00:15:37;;;;;;;8.33;6.00;;;12.40;99.90;;;;;;5072916;28;20701;-67
2022/09/14 00:18:04;;;;;;;7.17;5.83;;;12.40;99.90;;;;;;5072691;28;20205;-67
2022/09/14 00:20:31;;;;;;;7.77;6.17;;;12.40;99.90;;;;;;5071858;28;20299;-69
2022/09/14 00:22:59;;;;;;;8.03;6.27;;;12.40;99.90;;;;;;5071507;28;20208;-67
2022/09/14 00:25:26;;;;;;;9.83;5.63;;;12.40;99.90;;;;;;5072235;28;20323;-67
2022/09/14 00:27:53;;;;;;;9.47;6.40;;;12.40;99.90;;;;;;5072905;28;20208;-66
2022/09/14 00:30:22;;;;;;;9.73;6.83;;;12.40;99.90;;;;;;5071736;28;20201;-66
2022/09/14 00:32:50;;;;;;;10.23;6.30;;;12.50;99.90;;;;;;5072919;28;20277;-68
2022/09/14 00:35:18;;;;;;;9.40;6.30;;;12.50;99.90;;;;;;5072820;28;20291;-69
2022/09/14 00:37:44;;;;;;;11.60;6.37;;;12.40;99.90;;;;;;5070929;28;20213;-68
2022/09/14 00:40:13;;;;;;;8.67;6.53;;;12.40;99.90;;;;;;5071013;28;20287;-68
2022/09/14 00:42:40;;;;;;;10.87;7.03;;;12.50;99.90;;;;;;5072189;28;20204;-68
2022/09/14 00:45:13;;;;;;;8.47;6.50;;;12.50;99.90;;;;;;5072021;28;20228;-68
2022/09/14 00:47:40;;;;;;;9.03;6.37;;;12.50;99.90;;;;;;5071892;28;20215;-67
2022/09/14 00:50:09;;;;;;;10.50;6.57;;;12.40;99.90;;;;;;5070308;28;20207;-70
2022/09/14 00:52:38;;;;;;;8.37;6.03;;;12.40;99.90;;;;;;5067386;28;20205;-69
2022/09/14 00:55:08;;;;;;;6.77;6.00;;;12.40;99.90;;;;;;5071979;28;20205;-68
2022/09/14 00:57:40;;;;;;;9.50;6.37;;;12.40;99.90;;;;;;5072947;28;20292;-69
2022/09/14 01:00:10;;;;;;;8.03;5.70;;;12.50;99.90;;;;;;5070240;28;20740;-69
2022/09/14 01:02:37;;;;;;;8.33;5.80;;;12.50;99.90;;;;;;5070090;28;20215;-68
2022/09/14 01:05:05;;;;;;;10.30;5.70;;;12.50;99.90;;;;;;5071759;28;20651;-67
2022/09/14 01:07:42;;;;;;;7.13;5.87;;;12.50;99.90;;;;;;5072348;28;20209;-66
2022/09/14 01:10:21;;;;;;;8.37;5.77;;;12.50;99.90;;;;;;5070828;28;20311;-68
2022/09/14 01:13:05;;;;;;;6.67;5.40;;;12.50;99.90;;;;;;5070162;28;20332;-69
2022/09/14 01:15:40;;;;;;;5.93;5.33;;;12.50;99.90;;;;;;5072325;28;20641;-68
2022/09/14 01:18:13;;;;;;;7.93;5.90;;;12.50;99.90;;;;;;5071870;28;20198;-68
2022/09/14 01:20:45;;;;;;;7.23;5.97;;;12.50;99.90;;;;;;5070864;28;20311;-68
2022/09/14 01:23:20;;;;;;;8.27;5.80;;;12.50;99.90;;;;;;5071918;28;20193;-67
2022/09/14 01:26:16;;;;;;;8.37;5.93;;;12.50;99.90;;;;;;5071926;28;20228;-66
2022/09/14 01:28:51;;;;;;;9.53;5.70;;;12.50;99.90;;;;;;5058228;28;20566;-67
2022/09/14 01:31:26;;;;;;;6.93;5.77;;;12.60;99.90;;;;;;5067294;28;20200;-68
2022/09/14 01:34:00;;;;;;;6.37;5.37;;;12.60;99.90;;;;;;5071650;28;20231;-68
2022/09/14 01:36:29;;;;;;;9.57;6.27;;;12.50;99.90;;;;;;5071899;28;20276;-67
2022/09/14 01:38:56;;;;;;;10.27;6.20;;;12.50;99.90;;;;;;5070923;28;20741;-70
2022/09/14 01:41:29;;;;;;;7.53;6.47;;;12.50;99.90;;;;;;5070217;28;20236;-70
2022/09/14 01:44:03;;;;;;;9.63;6.67;;;12.50;99.90;;;;;;5071758;28;20618;-70
2022/09/14 01:46:34;;;;;;;8.13;6.30;;;12.60;99.90;;;;;;5071692;28;20225;-70
2022/09/14 01:49:07;;;;;;;8.83;6.53;;;12.50;99.90;;;;;;5070880;28;20212;-70
2022/09/14 01:51:39;;;;;;;7.80;6.33;;;12.50;99.90;;;;;;5071240;28;20235;-69
2022/09/14 01:54:10;;;;;;;9.53;6.20;;;12.60;99.90;;;;;;5071467;28;20193;-70
2022/09/14 01:56:41;;;;;;;8.53;6.40;;;12.50;99.90;;;;;;5071695;28;20288;-70
2022/09/14 01:59:14;;;;;;;7.57;6.23;;;12.60;99.90;;;;;;5071124;28;20316;-70
2022/09/14 02:01:49;;;;;;;7.87;6.13;;;12.50;99.90;;;;;;5069388;28;20284;-69
2022/09/14 02:04:22;;;;;;;7.63;6.10;;;12.50;99.90;;;;;;5071378;28;20606;-70
2022/09/14 02:06:50;;;;;;;6.40;5.70;;;12.50;99.90;;;;;;5070137;28;20212;-69
2022/09/14 02:09:21;;;;;;;7.03;6.17;;;12.50;99.90;;;;;;5070640;28;20303;-70
2022/09/14 02:11:48;;;;;;;7.33;6.03;;;12.50;99.90;;;;;;5070877;28;20287;-70
2022/09/14 02:14:16;;;;;;;8.00;6.00;;;12.50;99.90;;;;;;5071469;28;20236;-68
2022/09/14 02:16:45;;;;;;;6.90;6.20;;;12.60;99.90;;;;;;5075143;28;20632;-70
2022/09/14 02:19:13;;;;;;;8.53;6.33;;;12.50;99.90;;;;;;5073982;28;20212;-71
2022/09/14 02:21:40;;;;;;;8.83;6.13;;;12.50;99.90;;;;;;5074887;28;20236;-71
2022/09/14 02:24:08;;;;;;;7.20;5.87;;;12.60;99.90;;;;;;5075494;28;20307;-70
2022/09/14 02:26:36;;;;;;;8.87;5.70;;;12.60;99.90;;;;;;5075444;28;20331;-71
2022/09/14 02:29:03;;;;;;;7.60;5.67;;;12.60;99.90;;;;;;5074001;28;20704;-70
2022/09/14 02:31:42;;;;;;;6.10;5.50;;;12.50;99.90;;;;;;5074853;28;20204;-71
2022/09/14 02:34:17;;;;;;;6.33;5.10;;;12.60;99.90;;;;;;5075660;28;20195;-72
2022/09/14 02:36:50;;;;;;;7.20;5.33;;;12.60;99.90;;;;;;5075916;28;20593;-72
2022/09/14 02:39:26;;;;;;;6.60;5.50;;;12.60;99.90;;;;;;5075682;28;20292;-70
2022/09/14 02:42:03;;;;;;;8.13;5.50;;;12.60;99.90;;;;;;5074070;28;20283;-69
2022/09/14 02:44:37;;;;;;;7.07;5.27;;;12.60;99.90;;;;;;5075321;28;20284;-71
2022/09/14 02:47:12;;;;;;;7.37;5.30;;;12.60;99.90;;;;;;5073874;28;20665;-70
2022/09/14 02:49:48;;;;;;;8.60;4.97;;;12.60;99.90;;;;;;5055175;28;20615;-71
2022/09/14 02:52:18;;;;;;;5.63;5.03;;;12.60;99.90;;;;;;5074223;28;20200;-71
2022/09/14 02:54:52;;;;;;;8.00;5.37;;;12.70;99.90;;;;;;5075074;28;20208;-71
2022/09/14 02:57:19;;;;;;;7.00;5.33;;;12.60;99.90;;;;;;5074249;28;20199;-70
2022/09/14 02:59:46;;;;;;;7.33;6.27;;;12.70;99.90;;;;;;5072445;28;20319;-71
2022/09/14 03:02:14;;;;;;;6.33;5.60;;;12.70;99.90;;;;;;5073267;28;20288;-71
2022/09/14 03:04:41;;;;;;;6.43;5.00;;;12.60;99.90;;;;;;5072245;28;20713;-72
2022/09/14 03:07:08;;;;;;;6.73;4.70;;;12.60;99.90;;;;;;5075157;28;20225;-71
2022/09/14 03:09:35;;;;;;;5.77;4.73;;;12.60;99.90;;;;;;5074532;28;20705;-71
2022/09/14 03:12:02;;;;;;;5.73;4.57;;;12.60;99.90;;;;;;5072469;28;20553;-69
2022/09/14 03:14:29;;;;;;;5.93;5.00;;;12.60;99.90;;;;;;5074274;28;20722;-69
2022/09/14 03:16:56;;;;;;;6.00;5.40;;;12.60;99.90;;;;;;5073942;28;20299;-68
2022/09/14 03:19:24;;;;;;;8.40;5.60;;;12.60;99.90;;;;;;5074123;28;20303;-69
2022/09/14 03:21:51;;;;;;;6.17;5.37;;;12.60;99.90;;;;;;5073531;28;20299;-69
2022/09/14 03:24:18;;;;;;;6.17;4.93;;;12.70;99.90;;;;;;5072972;28;20320;-69
2022/09/14 03:26:46;;;;;;;6.73;5.50;;;12.70;99.90;;;;;;5072853;28;20669;-69
2022/09/14 03:29:12;;;;;;;5.70;5.10;;;12.60;99.90;;;;;;5074231;28;20278;-71
2022/09/14 03:31:39;;;;;;;5.90;5.00;;;12.60;99.90;;;;;;5072862;28;20711;-70
2022/09/14 03:34:06;;;;;;;6.20;5.13;;;12.60;99.90;;;;;;5072981;28;20211;-69
2022/09/14 03:36:34;;;;;;;6.87;4.87;;;12.60;99.90;;;;;;5073297;28;20296;-69
2022/09/14 03:39:01;;;;;;;6.97;5.00;;;12.60;99.90;;;;;;5073970;28;20227;-69
2022/09/14 03:41:29;;;;;;;5.10;4.60;;;12.60;99.90;;;;;;5073175;28;20288;-68
2022/09/14 03:43:55;;;;;;;7.27;5.13;;;12.50;99.90;;;;;;5072787;28;20295;-69
2022/09/14 03:46:24;;;;;;;6.70;4.37;;;12.60;99.90;;;;;;5053657;28;20621;-70
2022/09/14 03:48:51;;;;;;;5.47;4.90;;;12.50;99.90;;;;;;5053303;28;20309;-70
2022/09/14 03:51:18;;;;;;;6.30;4.17;;;12.50;99.90;;;;;;5066362;28;20205;-68
2022/09/14 03:53:47;;;;;;;5.83;4.63;;;12.50;99.90;;;;;;5073314;28;20262;-70
2022/09/14 03:56:17;;;;;;;6.50;4.70;;;12.50;99.90;;;;;;5071776;28;20680;-69
2022/09/14 03:58:45;;;;;;;5.37;4.70;;;12.50;99.90;;;;;;5072900;28;20315;-68
2022/09/14 04:01:14;;;;;;;6.23;4.70;;;12.60;99.90;;;;;;5073169;28;20746;-68
2022/09/14 04:03:41;;;;;;;6.53;4.80;;;12.50;99.90;;;;;;5072987;28;20236;-69
2022/09/14 04:06:09;;;;;;;5.50;4.33;;;12.50;99.90;;;;;;5072410;28;20232;-69
2022/09/14 04:08:37;;;;;;;7.27;4.60;;;12.50;99.90;;;;;;5072135;28;20697;-70
2022/09/14 04:11:08;;;;;;;8.20;4.57;;;12.50;99.90;;;;;;5073222;28;20665;-70
2022/09/14 04:13:36;;;;;;;8.60;4.47;;;12.50;99.90;;;;;;5072873;28;20193;-68
2022/09/14 04:16:03;;;;;;;7.17;5.17;;;12.50;99.90;;;;;;5072433;28;20633;-70
2022/09/14 04:18:30;;;;;;;5.40;4.00;;;12.50;99.90;;;;;;5070963;28;20299;-69
2022/09/14 04:20:58;;;;;;;9.60;4.67;;;12.50;99.90;;;;;;5072932;28;20858;-68
2022/09/14 04:23:25;;;;;;;7.17;4.90;;;12.50;99.90;;;;;;5072738;28;20292;-70
2022/09/14 04:25:53;;;;;;;7.37;4.73;;;12.50;99.90;;;;;;5071286;28;20200;-69
2022/09/14 04:28:22;;;;;;;5.90;4.53;;;12.50;99.90;;;;;;5071724;28;20299;-70
2022/09/14 04:30:56;;;;;;;5.00;4.40;;;12.60;99.90;;;;;;5072870;28;20200;-68
2022/09/14 04:33:23;;;;;;;5.30;4.33;;;12.50;99.90;;;;;;5072788;28;20612;-69
2022/09/14 04:35:58;;;;;;;6.90;4.53;;;12.60;99.90;;;;;;5072072;28;20720;-70
2022/09/14 04:38:25;;;;;;;7.20;4.90;;;12.60;99.90;;;;;;5070350;28;20219;-72
2022/09/14 04:40:52;;;;;;;7.30;5.20;;;12.60;99.90;;;;;;5072237;28;20296;-69
2022/09/14 04:43:19;;;;;;;7.37;4.80;;;12.60;99.90;;;;;;5072756;28;20732;-68
2022/09/14 04:45:47;;;;;;;6.13;4.57;;;12.60;99.90;;;;;;5071642;28;20209;-69
2022/09/14 04:48:14;;;;;;;6.87;5.20;;;12.60;99.90;;;;;;5072138;28;20600;-70
2022/09/14 04:50:41;;;;;;;6.03;4.77;;;12.60;99.90;;;;;;5071809;28;20300;-72
2022/09/14 04:53:08;;;;;;;6.00;5.00;;;12.70;99.90;;;;;;5072663;28;20614;-70
2022/09/14 04:55:35;;;;;;;7.10;5.10;;;12.60;99.90;;;;;;5071040;28;20252;-68
2022/09/14 04:58:02;;;;;;;7.07;5.90;;;12.70;99.90;;;;;;5072109;28;20287;-69
2022/09/14 05:00:29;;;;;;;9.10;5.70;;;12.60;99.90;;;;;;5071871;28;20212;-70
2022/09/14 05:02:57;;;;;;;5.73;5.13;;;12.60;99.90;;;;;;5072170;28;20702;-69
2022/09/14 05:05:24;;;;;;;6.17;4.87;;;12.60;99.90;;;;;;5071401;28;20217;-69
2022/09/14 05:07:51;;;;;;;6.87;5.67;;;12.60;99.90;;;;;;5070028;28;20227;-69
2022/09/14 05:10:18;;;;;;;7.27;6.03;;;12.60;99.90;;;;;;5070700;28;20626;-69
2022/09/14 05:12:45;;;;;;;7.23;5.30;;;12.60;99.90;;;;;;5070986;28;20212;-69
2022/09/14 05:15:12;;;;;;;6.77;4.83;;;12.60;99.90;;;;;;5070769;28;20196;-68
2022/09/14 05:17:39;;;;;;;8.03;4.97;;;12.60;99.90;;;;;;5063619;28;20295;-70
2022/09/14 05:20:08;;;;;;;6.23;5.23;;;12.60;99.90;;;;;;5070640;28;20638;-68
2022/09/14 05:22:35;;;;;;;7.87;5.13;;;12.70;99.90;;;;;;5071236;28;20681;-68
2022/09/14 05:25:02;;;;;;;7.33;5.17;;;12.70;99.90;;;;;;5069824;28;20301;-69
2022/09/14 05:27:30;;;;;;;7.53;4.93;;;12.80;99.90;;;;;;5069306;28;20217;-67
2022/09/14 05:29:57;;;;;;;6.73;5.10;;;12.80;99.90;;;;;;5066441;28;20201;-69
2022/09/14 05:32:23;;;;;;;5.63;4.93;;;12.80;99.90;;;;;;5059598;28;20303;-69
2022/09/14 05:34:50;;;;;;;6.33;5.00;;;12.90;99.90;;;;;;5069152;28;20564;-70
2022/09/14 05:37:18;;;;;;;5.47;4.93;;;12.90;99.90;;;;;;5067946;28;20292;-69
2022/09/14 05:39:45;;;;;;;5.37;4.40;;;13.00;99.90;;;;;;5071945;28;20235;-69
2022/09/14 05:42:12;;;;;;;6.37;5.20;;;13.00;99.90;;;;;;5071828;28;20262;-70
2022/09/14 05:44:39;;;;;;;7.60;5.43;;;13.10;99.90;;;;;;5071051;28;20733;-70
2022/09/14 05:47:06;;;;;;;6.40;4.60;;;13.10;99.90;;;;;;5071587;28;20328;-68
2022/09/14 05:49:33;;;;;;;6.10;4.73;;;13.20;99.90;;;;;;5068904;28;20299;-69
2022/09/14 05:52:00;;;;;;;5.80;5.17;;;13.30;99.90;;;;;;5070661;28;20295;-68
2022/09/14 05:54:28;;;;;;;7.77;4.87;;;13.30;99.90;;;;;;5069175;28;20200;-68
2022/09/14 05:56:55;;;;;;;6.20;5.30;;;13.40;99.90;;;;;;5071868;28;20291;-67
2022/09/14 05:59:21;;;;;;;7.27;5.30;;;13.40;99.90;;;;;;5069252;28;20224;-68
2022/09/14 06:01:48;;;;;;;6.03;4.50;;;13.40;99.90;;;;;;5071286;28;20218;-69
2022/09/14 06:04:15;;;;;;;5.73;4.73;;;13.50;99.90;;;;;;5070284;28;20645;-69
2022/09/14 06:06:42;;;;;;;7.37;5.60;;;13.50;99.90;;;;;;5071168;28;20328;-69
2022/09/14 06:09:09;;;;;;;7.07;4.57;;;13.60;99.90;;;;;;5070900;28;20295;-69
2022/09/14 06:11:37;;;;;;;9.37;4.83;;;13.60;99.90;;;;;;5071338;28;20218;-69
2022/09/14 06:14:05;;;;;;;9.37;4.63;;;13.70;99.90;;;;;;5071547;28;20726;-69
2022/09/14 06:16:32;;;;;;;8.30;4.93;;;13.70;99.90;;;;;;5071215;28;20726;-69
2022/09/14 06:18:59;;;;;;;6.40;4.50;;;13.70;99.90;;;;;;5069833;28;20678;-67
2022/09/14 06:21:29;;;;;;;6.30;4.90;;;13.70;99.90;;;;;;5069729;28;20197;-66
2022/09/14 06:23:56;;;;;;;6.47;4.90;;;13.70;99.90;;;;;;5069125;28;20733;-68
2022/09/14 06:26:23;;;;;;;5.47;4.33;;;13.70;99.90;;;;;;5070381;28;20203;-68
2022/09/14 06:28:52;;;;;;;5.17;4.50;;;13.70;99.90;;;;;;5070666;28;20215;-69
2022/09/14 06:31:21;;;;;;;8.47;4.80;;;13.80;99.90;;;;;;5071220;28;20713;-69
2022/09/14 06:33:49;;;;;;;7.77;4.40;;;13.80;99.90;;;;;;5069798;28;20555;-69
2022/09/14 06:36:18;;;;;;;5.53;4.63;;;13.90;99.90;;;;;;5070118;28;20208;-72
2022/09/14 06:38:46;;;;;;;6.40;4.20;;;14.00;99.90;;;;;;5067144;28;20201;-69
2022/09/14 06:41:16;;;;;;;5.57;3.80;;;14.00;99.90;;;;;;5071327;28;20208;-74
2022/09/14 06:43:44;;;;;;;4.20;3.70;;;14.10;99.90;;;;;;5071227;28;20242;-69
2022/09/14 06:46:13;;;;;;;4.90;4.10;;;14.10;99.90;;;;;;5069793;28;20307;-69
2022/09/14 06:48:42;;;;;;;5.20;4.10;;;14.00;99.90;;;;;;5070880;28;20221;-70
2022/09/14 06:51:15;;;;;;;4.77;4.37;;;14.10;99.90;;;;;;5050999;28;20718;-69
2022/09/14 06:53:42;;;;;;;6.17;4.70;;;14.20;99.90;;;;;;5051554;28;20631;-68
2022/09/14 06:56:09;;;;;;;6.97;4.20;;;14.30;99.90;;;;;;5059574;28;20306;-68
2022/09/14 06:58:36;;;;;;;4.20;3.80;;;14.30;99.90;;;;;;5070914;28;20197;-69
2022/09/14 07:01:04;;;;;;;5.30;4.53;;;14.30;99.90;;;;;;5072165;28;20239;-70
2022/09/14 07:03:33;;;;;;;4.90;4.00;;;14.30;99.90;;;;;;5074470;28;20676;-69
2022/09/14 07:06:05;;;;;;;6.20;4.20;;;14.30;99.90;;;;;;5074182;28;20289;-69
2022/09/14 07:08:32;;;;;;;4.97;3.83;;;14.30;99.90;;;;;;5073865;28;20224;-69
2022/09/14 07:11:00;;;;;;;5.40;3.90;;;14.30;99.90;;;;;;5074068;28;20206;-70
2022/09/14 07:13:28;;;;;;;4.10;3.70;;;14.30;99.90;;;;;;5074504;28;20542;-70
2022/09/14 07:15:55;;;;;;;5.57;3.93;;;14.40;99.90;;;;;;5073326;28;20300;-70
2022/09/14 07:18:22;;;;;;;5.50;4.17;;;14.40;99.90;;;;;;5073203;28;20205;-72
2022/09/14 07:20:51;;;;;;;4.90;4.00;;;14.40;99.90;;;;;;5072381;28;20204;-70
2022/09/14 07:23:17;;;;;;;3.93;3.53;;;14.50;99.90;;;;;;5053886;28;20219;-69
2022/09/14 07:25:44;;;;;;;3.57;3.27;;;14.50;99.90;;;;;;5058857;28;20215;-70
2022/09/14 07:28:11;;;;;;;4.23;3.50;;;14.60;99.90;;;;;;5073514;28;20240;-69
2022/09/14 07:30:40;;;;;;;4.33;3.30;;;14.60;99.90;;;;;;5074214;28;20785;-69
2022/09/14 07:33:07;;;;;;;4.80;2.90;;;14.60;99.90;;;;;;5072062;28;20201;-69
2022/09/14 07:35:34;;;;;;;5.03;3.30;;;14.60;99.90;;;;;;5073297;28;20297;-70
2022/09/14 07:38:02;;;;;;;4.63;2.90;;;14.70;99.90;;;;;;5073765;28;20229;-69
2022/09/14 07:40:29;;;;;;;3.37;3.03;;;14.70;99.90;;;;;;5073134;28;20240;-71
2022/09/14 07:42:56;;;;;;;4.30;3.10;;;14.80;99.90;;;;;;5071429;28;20204;-71
2022/09/14 07:45:23;;;;;;;3.50;3.03;;;14.80;99.90;;;;;;5073062;28;20300;-70
2022/09/14 07:47:50;;;;;;;3.67;3.00;;;14.90;99.90;;;;;;5073979;28;20296;-69
2022/09/14 07:50:17;;;;;;;4.73;3.27;;;15.00;99.90;;;;;;5073590;28;20226;-68
2022/09/14 07:52:44;;;;;;;4.77;3.00;;;15.10;99.90;;;;;;5073948;28;20690;-71
2022/09/14 07:55:13;;;;;;;4.17;2.93;;;15.20;99.90;;;;;;5072886;28;20300;-70
2022/09/14 07:57:39;;;;;;;3.87;3.10;;;15.20;99.90;;;;;;5073335;28;20299;-70
2022/09/14 08:00:08;;;;;;;4.13;3.03;;;15.30;99.90;;;;;;5073398;28;20205;-69
2022/09/14 08:02:35;;;;;;;3.50;2.90;;;15.30;99.90;;;;;;5073413;28;20244;-68
2022/09/14 08:05:02;;;;;;;3.77;2.80;;;15.40;99.90;;;;;;5072893;28;20236;-71
2022/09/14 08:07:29;;;;;;;3.10;2.80;;;15.40;99.90;;;;;;5072587;28;20618;-70
2022/09/14 08:09:56;;;;;;;3.73;2.70;;;15.50;99.90;;;;;;5082791;28;20292;-69
2022/09/14 08:12:25;;;;;;;4.80;2.80;;;15.60;99.90;;;;;;5057793;28;20254;-69
2022/09/14 08:14:52;;;;;;;7.33;2.80;;;15.60;99.90;;;;;;5061872;28;20209;-69
2022/09/14 08:17:22;;;;;;;3.10;2.40;;;15.70;99.90;;;;;;5072332;28;20799;-69
2022/09/14 08:19:50;;;;;;;3.63;2.50;;;15.80;99.90;;;;;;5073513;28;20248;-71
2022/09/14 08:22:17;;;;;;;5.90;2.60;;;15.80;99.90;;;;;;5073253;28;20206;-71
2022/09/14 08:24:44;;;;;;;2.70;2.40;;;15.90;99.90;;;;;;5073261;28;20654;-69
2022/09/14 08:27:11;;;;;;;3.10;2.77;;;16.00;99.90;;;;;;5071849;28;20246;-68
2022/09/14 08:29:39;;;;;;;3.93;3.53;;;16.10;99.90;;;;;;5073192;28;20307;-70
2022/09/14 08:32:06;;;;;;;5.40;3.83;;;16.20;99.90;;;;;;5072821;28;20712;-70
2022/09/14 08:34:33;;;;;;;3.60;3.00;;;16.30;99.90;;;;;;5073649;28;20722;-68
2022/09/14 08:37:00;;;;;;;3.17;2.87;;;16.40;99.90;;;;;;5070761;28;20714;-69
2022/09/14 08:39:27;;;;;;;3.13;2.50;;;16.40;99.90;;;;;;5071066;28;20299;-69
2022/09/14 08:41:55;;;;;;;4.73;2.57;;;16.50;99.90;;;;;;5060338;28;20206;-68
2022/09/14 08:44:26;;;;;;;3.03;2.67;;;16.60;99.90;;;;;;5076123;28;20263;-68
2022/09/14 08:47:01;;;;;;;3.27;2.40;;;16.60;99.90;;;;;;5072696;28;20192;-69
2022/09/14 08:49:41;;;;;;;4.33;2.53;;;16.70;99.90;;;;;;5070339;28;20228;-69
2022/09/14 08:52:13;;;;;;;3.90;2.80;;;16.80;99.90;;;;;;5071542;28;20630;-68
2022/09/14 08:54:40;;;;;;;6.93;3.40;;;16.90;99.90;;;;;;5074934;28;20204;-69
2022/09/14 08:57:14;;;;;;;5.13;3.20;;;16.90;99.90;;;;;;5077549;28;20834;-70
2022/09/14 08:59:48;;;;;;;4.23;2.70;;;17.00;99.90;;;;;;5071969;28;20299;-70
2022/09/14 09:03:03;;;;;;;3.07;2.50;;;17.00;99.90;;;;;;5072926;28;20620;-73
2022/09/14 09:05:37;;;;;;;3.30;2.23;;;17.00;99.90;;;;;;5010316;28;20831;-69
2022/09/14 09:08:15;;;;;;;2.77;2.30;;;16.90;99.90;;;;;;5059892;28;20233;-69
2022/09/14 09:10:43;;;;;;;2.63;2.30;;;16.90;99.90;;;;;;5070759;28;20283;-72
2022/09/14 09:13:14;;;;;;;4.07;2.40;;;16.90;99.90;;;;;;5072385;28;20584;-70
2022/09/14 09:15:45;;;;;;;3.07;2.67;;;16.90;99.90;;;;;;5074443;28;20200;-70
2022/09/14 09:18:19;;;;;;;4.20;2.80;;;16.90;99.90;;;;;;5069199;28;20529;-69
2022/09/14 09:20:49;;;;;;;2.47;2.27;;;16.90;99.90;;;;;;5067512;28;20244;-69
2022/09/14 09:23:18;;;;;;;4.67;2.40;;;16.90;99.90;;;;;;5071746;28;20218;-68
2022/09/14 09:25:53;;;;;;;3.13;2.50;;;16.90;99.90;;;;;;5071587;28;20587;-69
2022/09/14 09:28:22;;;;;;;5.17;2.77;;;16.90;99.90;;;;;;5070293;28;20208;-70
2022/09/14 09:30:49;;;;;;;4.37;2.33;;;16.80;99.90;;;;;;5071492;28;20295;-67
2022/09/14 09:33:20;;;;;;;2.53;2.10;;;16.80;99.90;;;;;;5074680;28;20296;-70
2022/09/14 09:35:47;;;;;;;4.07;2.20;;;16.80;99.90;;;;;;5088248;28;20622;-69
2022/09/14 09:38:17;;;;;;;3.80;2.37;;;16.70;99.90;;;;;;5088865;28;20308;-71
2022/09/14 09:40:46;;;;;;;5.33;2.30;;;16.70;99.90;;;;;;5070608;28;20599;-69
2022/09/14 09:43:17;;;;;;;4.90;2.50;;;16.70;99.90;;;;;;5068292;28;20213;-69
2022/09/14 09:45:54;;;;;;;2.40;2.20;;;16.60;99.90;;;;;;5069121;28;20333;-69
2022/09/14 09:48:25;;;;;;;2.73;2.30;;;16.60;99.90;;;;;;5062318;28;20220;-66
2022/09/14 09:51:03;;;;;;;3.00;2.60;;;16.60;99.90;;;;;;5079639;28;20223;-69
2022/09/14 09:53:31;;;;;;;3.70;2.80;;;16.60;99.90;;;;;;5092130;28;20553;-67
2022/09/14 09:55:58;;;;;;;2.90;2.60;;;16.60;99.90;;;;;;5074183;28;20286;-70
2022/09/14 09:58:31;;;;;;;4.20;3.27;;;16.60;99.90;;;;;;5071341;28;20629;-68
2022/09/14 10:01:01;;;;;;;4.60;3.10;;;16.70;99.90;;;;;;5071937;28;20206;-67
2022/09/14 10:03:33;;;;;;;3.80;3.20;;;16.70;99.90;;;;;;5071162;28;20241;-67
2022/09/14 10:06:03;;;;;;;4.47;3.43;;;16.70;99.90;;;;;;5071105;28;20297;-67
2022/09/14 10:08:33;;;;;;;7.07;3.40;;;16.70;99.90;;;;;;5071536;28;20704;-68
2022/09/14 10:11:02;;;;;;;5.23;3.70;;;16.70;99.90;;;;;;5070221;28;20199;-67
2022/09/14 10:13:32;;;;;;;5.00;3.33;;;16.70;99.90;;;;;;5069039;28;20718;-68
2022/09/14 10:16:13;;;;;;;4.67;3.50;;;16.70;99.90;;;;;;5071120;28;20298;-67
2022/09/14 10:18:47;;;;;;;4.07;3.20;;;16.60;99.90;;;;;;5061491;28;20195;-68
2022/09/14 10:21:16;;;;;;;5.00;3.50;;;16.70;99.90;;;;;;5069713;28;20206;-68
2022/09/14 10:23:43;;;;;;;4.13;3.60;;;16.70;99.90;;;;;;5071452;28;20544;-67
2022/09/14 10:26:35;;;;;;;4.00;3.50;;;16.70;99.90;;;;;;5069508;28;20297;-70
2022/09/14 10:29:26;;;;;;;6.00;3.83;;;16.70;99.90;;;;;;5071006;28;20210;-69
2022/09/14 10:31:59;;;;;;;5.20;4.00;;;16.60;99.90;;;;;;5070506;28;20212;-68
2022/09/14 10:34:29;;;;;;;5.07;4.20;;;16.60;99.90;;;;;;5069179;28;20612;-68
2022/09/14 10:37:07;;;;;;;5.13;4.30;;;16.60;99.90;;;;;;5073239;28;20206;-71
2022/09/14 10:39:42;;;;;;;4.80;3.63;;;16.70;99.90;;;;;;5075158;28;20596;-69
2022/09/14 10:42:18;;;;;;;5.13;3.97;;;16.70;99.90;;;;;;5073470;28;20208;-69
2022/09/14 10:45:04;;;;;;;5.13;4.00;;;16.80;99.90;;;;;;5066393;28;20204;-68
2022/09/14 10:48:05;;;;;;;5.30;4.20;;;16.90;99.90;;;;;;5074486;28;20223;-69
2022/09/14 10:50:46;;;;;;;5.30;4.30;;;16.90;99.90;;;;;;5066513;28;20267;-69
2022/09/14 10:53:30;;;;;;;5.13;4.40;;;17.00;99.90;;;;;;5076675;28;20192;-67
2022/09/14 10:56:02;;;;;;;5.90;4.17;;;17.00;99.90;;;;;;5075692;28;20616;-69
2022/09/14 10:58:41;;;;;;;7.27;4.70;;;17.10;99.90;;;;;;5074963;28;20263;-67
2022/09/14 11:01:25;;;;;;;5.13;4.53;;;17.10;99.90;;;;;;5074590;28;20300;-68
2022/09/14 11:04:04;;;;;;;4.90;4.40;;;17.20;99.90;;;;;;5076282;28;20243;-69
2022/09/14 11:06:44;;;;;;;5.47;4.60;;;17.20;99.90;;;;;;5069329;28;20220;-68
2022/09/14 11:09:21;;;;;;;5.17;4.67;;;17.20;99.90;;;;;;5072948;28;20231;-68
2022/09/14 11:12:01;;;;;;;5.97;5.13;;;17.30;99.90;;;;;;5074566;28;20228;-70
2022/09/14 11:14:56;;;;;;;5.43;4.47;;;17.30;99.90;;;;;;5072469;28;20203;-70
2022/09/14 11:17:49;;;;;;;6.40;4.80;;;17.40;99.90;;;;;;5067665;28;20206;-68
2022/09/14 11:20:25;;;;;;;5.40;4.70;;;17.40;99.90;;;;;;5079544;28;20203;-68
2022/09/14 11:23:02;;;;;;;11.10;7.20;;;17.40;99.90;;;;;;5074611;28;20614;-68
2022/09/14 11:25:36;;;;;;;19.87;11.93;;;17.50;99.90;;;;;;5074403;28;20306;-68
2022/09/14 11:28:09;;;;;;;13.00;7.67;;;17.50;99.90;;;;;;5074467;28;20508;-68
2022/09/14 11:30:41;;;;;;;8.37;5.77;;;17.50;99.90;;;;;;5074010;28;20202;-68
2022/09/14 11:33:15;;;;;;;6.03;5.43;;;17.60;99.90;;;;;;5074482;28;20228;-67
2022/09/14 11:35:45;;;;;;;6.87;5.60;;;17.60;99.90;;;;;;5072043;28;20204;-67
2022/09/14 11:38:19;;;;;;;6.57;5.40;;;17.60;99.90;;;;;;5074082;28;20211;-67
2022/09/14 11:40:49;;;;;;;6.33;5.00;;;17.60;99.90;;;;;;5074964;28;20569;-71
2022/09/14 11:43:21;;;;;;;7.30;6.00;;;17.60;99.90;;;;;;5074779;28;20210;-68
2022/09/14 11:45:52;;;;;;;7.93;6.23;;;17.60;99.90;;;;;;5073619;28;20283;-68
2022/09/14 11:48:24;;;;;;;8.30;6.77;;;17.60;99.90;;;;;;5074051;28;20555;-69
2022/09/14 11:51:06;;;;;;;11.27;6.53;;;17.50;99.90;;;;;;5073786;28;20311;-69
2022/09/14 11:53:35;;;;;;;9.67;6.37;;;17.50;99.90;;;;;;5070741;28;20201;-67
2022/09/14 11:56:04;;;;;;;8.60;6.83;;;17.50;99.90;;;;;;5072261;28;20641;-69
2022/09/14 11:58:30;;;;;;;7.70;6.43;;;17.50;99.90;;;;;;5072718;28;20655;-70
2022/09/14 12:01:04;;;;;;;8.73;5.80;;;17.50;99.90;;;;;;5075673;28;20208;-67
2022/09/14 12:04:06;;;;;;;8.23;5.90;;;17.60;99.90;;;;;;5069467;28;20782;-67
2022/09/14 12:06:56;;;;;;;9.27;6.30;;;17.60;99.90;;;;;;5048954;28;20342;-68
2022/09/14 12:09:44;;;;;;;6.30;5.70;;;17.60;99.90;;;;;;5071994;28;20656;-67
2022/09/14 12:12:34;;;;;;;7.60;6.70;;;17.50;99.90;;;;;;5071465;28;20673;-69
2022/09/14 12:15:04;;;;;;;6.70;6.00;;;17.50;99.90;;;;;;5071988;28;20242;-68
2022/09/14 12:17:34;;;;;;;8.17;6.60;;;17.40;99.90;;;;;;5072641;28;20205;-68
2022/09/14 12:20:29;;;;;;;10.07;7.40;;;17.40;99.90;;;;;;5073503;28;20548;-68
2022/09/14 12:23:13;;;;;;;10.47;8.47;;;17.40;99.90;;;;;;5073067;28;20210;-67
2022/09/14 12:25:58;;;;;;;9.23;6.97;;;17.40;99.90;;;;;;5072004;28;20209;-69
2022/09/14 12:28:38;;;;;;;8.83;6.37;;;17.30;99.90;;;;;;5072763;28;20192;-67
2022/09/14 12:31:38;;;;;;;8.43;6.20;;;17.30;99.90;;;;;;5072885;28;20196;-67
2022/09/14 12:34:13;;;;;;;6.37;5.37;;;17.30;99.90;;;;;;5071299;28;20208;-67
2022/09/14 12:37:00;;;;;;;10.73;6.57;;;17.20;99.90;;;;;;5073058;28;20651;-67
2022/09/14 12:39:29;;;;;;;9.50;6.83;;;17.30;99.90;;;;;;5072677;28;20213;-68
2022/09/14 12:42:04;;;;;;;8.00;6.40;;;17.30;99.90;;;;;;5071770;28;20677;-67
2022/09/14 12:44:37;;;;;;;7.13;6.30;;;17.30;99.90;;;;;;5052810;28;20195;-68
2022/09/14 12:47:52;;;;;;;7.17;6.40;;;17.40;99.90;;;;;;5052957;28;20559;-68
2022/09/14 12:50:21;;;;;;;9.97;6.90;;;17.40;99.90;;;;;;5010570;28;20214;-67
2022/09/14 12:53:13;;;;;;;7.90;6.47;;;17.40;99.90;;;;;;5016559;28;20614;-68
2022/09/14 12:56:02;;;;;;;8.87;6.43;;;17.40;99.90;;;;;;5010319;28;20285;-67
2022/09/14 12:58:54;;;;;;;9.07;6.30;;;17.40;99.90;;;;;;5009572;28;20211;-67
2022/09/14 13:01:31;;;;;;;7.93;6.10;;;17.40;99.90;;;;;;5010216;28;20677;-67
2022/09/14 13:03:58;;;;;;;9.87;7.50;;;17.40;99.90;;;;;;5025070;28;20337;-68
2022/09/14 13:06:34;;;;;;;8.63;6.57;;;17.40;99.90;;;;;;5029857;28;20746;-67